Bretagne — FNBR — position and weather

sailwx.info

Track history (hours):
 
Tides and Currents Weather Stations Pressure Air Temp Water Temp Dewpoint Dewpoint Depression Visibility Wind Speed Wind Dir Waves Ship Positions

Bretagne

Operator: Brittany Ferries

Last reported at 2017-Mar-23 02:24 UTC. Time now 2017-Mar-23 08:21 UTC.
Position N 49°33' W 002°11'.

Length 151 m; beam 27 m.

Type: Ship. MMSI: 227286000.

Date/timePositionNaut miles runAvg speedWind from/ knotsBaromVisibWave heightAir tempDewpointWater temp
2017-Mar-23 02:24N 49°33' W 002°11'1513.7
2017-Mar-23 01:16N 49°47' W 002°01'1115.2
2017-Mar-23 00:33N 49°56' W 001°52'1616.1
2017-Mar-22 23:33N 50°09' W 001°38'1616.4
2017-Mar-22 22:33N 50°23' W 001°24'1716.8
2017-Mar-22 21:34N 50°36' W 001°08'1212.0
2017-Mar-22 20:34N 50°48' W 001°07'1 0.8
2017-Mar-22 19:32N 50°49' W 001°06'0 0.0
2017-Mar-22 18:32N 50°49' W 001°06'0 0.0
2017-Mar-22 17:32N 50°49' W 001°06'0 0.0
2017-Mar-22 16:32N 50°49' W 001°06'0 0.0
2017-Mar-22 15:32N 50°49' W 001°06'0 0.0
2017-Mar-22 14:32N 50°49' W 001°06'0 0.0
2017-Mar-22 13:33N 50°49' W 001°06'0 0.0
2017-Mar-22 12:33N 50°49' W 001°06'0 0.0
2017-Mar-22 11:29N 50°49' W 001°06'0 0.0
2017-Mar-22 10:29N 50°49' W 001°06'0 0.0
2017-Mar-22 09:31N 50°49' W 001°06'0 0.0
2017-Mar-22 08:31N 50°49' W 001°06'1 1.3
2017-Mar-22 07:33N 50°48' W 001°07'10 9.6
2017-Mar-22 06:33N 50°38' W 001°06'1814.2
2017-Mar-22 05:17N 50°23' W 001°22'811.1
2017-Mar-22 04:33N 50°16' W 001°29'1211.8
2017-Mar-22 03:33N 50°06' W 001°39'1212.0
2017-Mar-22 02:33N 49°56' W 001°49'1212.2
2017-Mar-22 01:33N 49°46' W 002°00'17 0.8
2017-Mar-21 03:05N 49°31' W 002°12'2214.3
2017-Mar-21 01:34N 49°51' W 001°57'1413.7
2017-Mar-21 00:33N 50°02' W 001°44'2914.3
2017-Mar-20 22:32N 50°26' W 001°19'1514.9
2017-Mar-20 21:33N 50°38' W 001°06'1010.4
2017-Mar-20 20:34N 50°48' W 001°07'1 0.9
2017-Mar-20 19:33N 50°49' W 001°06'0 0.0
2017-Mar-20 18:33N 50°49' W 001°06'0 0.0
2017-Mar-20 17:33N 50°49' W 001°06'0 0.0
2017-Mar-20 16:33N 50°49' W 001°06'0 0.0
2017-Mar-20 15:33N 50°49' W 001°06'0 0.0
2017-Mar-20 14:33N 50°49' W 001°06'0 0.0
2017-Mar-20 13:33N 50°49' W 001°06'0 0.0
2017-Mar-20 12:33N 50°49' W 001°06'0 0.0
2017-Mar-20 11:33N 50°49' W 001°06'0 0.0
2017-Mar-20 10:33N 50°49' W 001°06'0 0.0
2017-Mar-20 09:33N 50°49' W 001°06'0 0.0
2017-Mar-20 08:34N 50°49' W 001°06'0 0.1
2017-Mar-20 07:34N 50°49' W 001°06'10 9.9
2017-Mar-20 06:33N 50°39' W 001°05'1717.2
2017-Mar-20 05:33N 50°24' W 001°21'1111.3
2017-Mar-20 04:33N 50°15' W 001°30'1211.7
2017-Mar-20 03:34N 50°06' W 001°42'1211.9
2017-Mar-20 02:33N 49°56' W 001°53'6312.1
2017-Mar-19 21:19N 48°56' W 002°21'21 3.0
2017-Mar-19 14:05N 48°38' W 002°02'0 0.0
2017-Mar-19 11:26N 48°38' W 002°02'0 0.0
2017-Mar-19 07:29N 48°38' W 002°02'4 4.7
2017-Mar-19 06:33N 48°42' W 002°06'2216.8
2017-Mar-19 05:14N 49°01' W 002°22'912.7
2017-Mar-19 04:33N 49°10' W 002°22'1212.1
2017-Mar-19 03:33N 49°22' W 002°18'1714.8
2017-Mar-19 02:24N 49°37' W 002°07'1315.2
2017-Mar-19 01:33N 49°49' W 001°59'1313.4
2017-Mar-19 00:33N 49°59' W 001°45'1313.4
2017-Mar-18 23:34N 50°10' W 001°34'1313.5
2017-Mar-18 22:33N 50°22' W 001°23'1413.9
2017-Mar-18 21:33N 50°33' W 001°11'1212.2
2017-Mar-18 20:34N 50°45' W 001°05'4 3.7
2017-Mar-18 19:33N 50°49' W 001°06'0 0.0
2017-Mar-18 18:32N 50°49' W 001°06'2 1.8
2017-Mar-18 17:34N 50°47' W 001°06'1211.8
2017-Mar-18 16:33N 50°35' W 001°09'1615.9
2017-Mar-18 15:33N 50°22' W 001°22'1717.5
2017-Mar-18 14:33N 50°07' W 001°37'1818.4
2017-Mar-18 13:34N 49°51' W 001°52'2019.8
2017-Mar-18 12:33N 49°33' W 002°03'50 8.3
2017-Mar-18 06:31N 48°43' W 002°07'4614.9
2017-Mar-18 03:24N 49°29' W 002°13'1719.0
2017-Mar-18 02:30N 49°45' W 002°02'1617.5
2017-Mar-18 01:33N 49°59' W 001°50'2217.3
2017-Mar-18 00:17N 50°21' W 001°45'1114.6
2017-Mar-17 23:33N 50°31' W 001°40'1711.1
2017-Mar-17 22:04N 50°32' W 001°14'611.0
2017-Mar-17 21:34N 50°36' W 001°07'1111.2
2017-Mar-17 20:33N 50°48' W 001°07'1 1.3
2017-Mar-17 19:33N 50°49' W 001°06'0 0.0
2017-Mar-17 18:33N 50°49' W 001°06'0 0.0
2017-Mar-17 17:33N 50°49' W 001°06'0 0.0
2017-Mar-17 16:33N 50°49' W 001°06'0 0.0
2017-Mar-17 15:33N 50°49' W 001°06'0 0.0
2017-Mar-17 14:31N 50°49' W 001°06'0 0.0
2017-Mar-17 13:31N 50°49' W 001°06'0 0.0
2017-Mar-17 12:31N 50°49' W 001°06'0 0.0
2017-Mar-17 11:31N 50°49' W 001°06'0 0.0
2017-Mar-17 10:31N 50°49' W 001°06'0 0.0
2017-Mar-17 09:31N 50°49' W 001°06'0 0.0
2017-Mar-17 08:31N 50°49' W 001°06'1 0.5
2017-Mar-17 07:33N 50°49' W 001°07'10 9.6
2017-Mar-17 06:34N 50°39' W 001°05'1513.4
2017-Mar-17 05:25N 50°26' W 001°19'910.3
2017-Mar-17 04:33N 50°19' W 001°27'1212.3
2017-Mar-17 03:33N 50°09' W 001°38'1414.4
2017-Mar-17 02:33N 49°57' W 001°49'1211.8
2017-Mar-17 01:33N 49°47' W 001°59'1510.9
2017-Mar-17 00:11N 49°34' W 002°10'3412.8
2017-Mar-16 21:30N 49°00' W 002°22'1212.1
2017-Mar-16 20:30N 48°49' W 002°18'9 0.9
2017-Mar-16 09:33N 48°44' W 002°05'6 5.6
2017-Mar-16 08:30N 48°38' W 002°02'0 0.0
2017-Mar-16 07:14N 48°38' W 002°02'4 6.3
2017-Mar-16 06:33N 48°42' W 002°06'1918.5
2017-Mar-16 05:33N 48°57' W 002°22'1313.5
2017-Mar-16 04:33N 49°11' W 002°22'1413.5
2017-Mar-16 03:33N 49°24' W 002°16'1814.9
2017-Mar-16 02:20N 49°40' W 002°06'1418.0
2017-Mar-16 01:34N 49°52' W 001°53'1717.1
2017-Mar-16 00:34N 50°05' W 001°37'1716.6
2017-Mar-15 23:33N 50°18' W 001°21'1616.0
2017-Mar-15 22:33N 50°31' W 001°05'1313.1
2017-Mar-15 21:33N 50°44' W 001°04'5 4.8
2017-Mar-15 20:33N 50°49' W 001°06'0 0.0
2017-Mar-15 19:33N 50°49' W 001°06'0 0.0
2017-Mar-15 18:32N 50°49' W 001°06'0 0.0
2017-Mar-15 17:34N 50°49' W 001°06'0 0.0
2017-Mar-15 16:33N 50°49' W 001°06'0 0.0
2017-Mar-15 15:31N 50°49' W 001°06'0 0.0
2017-Mar-15 14:31N 50°49' W 001°06'0 0.0
2017-Mar-15 13:33N 50°49' W 001°06'0 0.0
2017-Mar-15 12:33N 50°49' W 001°06'0 0.0
2017-Mar-15 11:32N 50°49' W 001°06'0 0.0
2017-Mar-15 10:32N 50°49' W 001°06'0 0.0
2017-Mar-15 09:32N 50°49' W 001°06'0 0.0
2017-Mar-15 08:31N 50°49' W 001°06'0 0.2
2017-Mar-15 07:34N 50°49' W 001°06'9 9.2
2017-Mar-15 06:33N 50°40' W 001°04'1717.2
2017-Mar-15 05:33N 50°25' W 001°18'1110.5
2017-Mar-15 04:33N 50°17' W 001°29'1413.6
2017-Mar-15 03:33N 50°06' W 001°42'1312.9
2017-Mar-15 02:34N 49°55' W 001°52'1412.7
2017-Mar-15 01:29N 49°44' W 002°04'11 9.7
2017-Mar-15 00:18N 49°33' W 002°11'2614.5
2017-Mar-14 22:32N 49°09' W 002°25'1414.1
2017-Mar-14 21:33N 48°55' W 002°22'1212.4
2017-Mar-14 20:33N 48°46' W 002°10'5 0.3
2017-Mar-14 06:20N 48°46' W 002°03'1011.3
2017-Mar-14 05:28N 48°52' W 002°15'2912.8
2017-Mar-14 03:11N 49°21' W 002°21'1214.4
2017-Mar-14 02:21N 49°31' W 002°11'1716.1
2017-Mar-14 01:17N 49°47' W 002°00'1013.9
2017-Mar-14 00:34N 49°55' W 001°53'1616.3
2017-Mar-13 23:34N 50°09' W 001°38'1515.1
2017-Mar-13 22:33N 50°21' W 001°25'1413.9
2017-Mar-13 21:33N 50°32' W 001°12'1212.5
2017-Mar-13 20:33N 50°44' W 001°04'5 4.8
2017-Mar-13 19:32N 50°49' W 001°06'0 0.0
2017-Mar-13 18:32N 50°49' W 001°06'0 0.0
2017-Mar-13 17:32N 50°49' W 001°06'0 0.0
2017-Mar-13 16:32N 50°49' W 001°06'0 0.0
2017-Mar-13 15:32N 50°49' W 001°06'0 0.0
2017-Mar-13 14:32N 50°49' W 001°06'0 0.0
2017-Mar-13 13:32N 50°49' W 001°06'0 0.0
2017-Mar-13 12:32N 50°49' W 001°06'0 0.0
2017-Mar-13 11:32N 50°49' W 001°06'0 0.0
2017-Mar-13 10:32N 50°49' W 001°06'0 0.0
2017-Mar-13 09:32N 50°49' W 001°06'0 0.0
2017-Mar-13 08:32N 50°49' W 001°06'0 0.0
2017-Mar-13 07:33N 50°49' W 001°06'10 9.9
2017-Mar-13 06:34N 50°40' W 000°59'2216.6
2017-Mar-13 05:14N 50°22' W 001°20'811.9
2017-Mar-13 04:33N 50°16' W 001°28'1312.6
2017-Mar-13 03:33N 50°06' W 001°40'1212.4
2017-Mar-13 02:33N 49°56' W 001°52'  
Track history (hours):
 
Tides and Currents Weather Stations Pressure Air Temp Water Temp Dewpoint Dewpoint Depression Visibility Wind Speed Wind Dir Waves Ship Positions

Bretagne

Operator: Brittany Ferries

Last reported at 2017-Mar-23 02:24 UTC. Time now 2017-Mar-23 08:21 UTC.
Position N 49°33' W 002°11'.

Length 151 m; beam 27 m.

Type: Ship. MMSI: 227286000.

Date/timePositionNaut miles runAvg speedWind from/ knotsBaromVisibWave heightAir tempDewpointWater temp
2017-Mar-23 02:24N 49°33' W 002°11'1513.7
2017-Mar-23 01:16N 49°47' W 002°01'1115.2
2017-Mar-23 00:33N 49°56' W 001°52'1616.1
2017-Mar-22 23:33N 50°09' W 001°38'1616.4
2017-Mar-22 22:33N 50°23' W 001°24'1716.8
2017-Mar-22 21:34N 50°36' W 001°08'1212.0
2017-Mar-22 20:34N 50°48' W 001°07'1 0.8
2017-Mar-22 19:32N 50°49' W 001°06'0 0.0
2017-Mar-22 18:32N 50°49' W 001°06'0 0.0
2017-Mar-22 17:32N 50°49' W 001°06'0 0.0
2017-Mar-22 16:32N 50°49' W 001°06'0 0.0
2017-Mar-22 15:32N 50°49' W 001°06'0 0.0
2017-Mar-22 14:32N 50°49' W 001°06'0 0.0
2017-Mar-22 13:33N 50°49' W 001°06'0 0.0
2017-Mar-22 12:33N 50°49' W 001°06'0 0.0
2017-Mar-22 11:29N 50°49' W 001°06'0 0.0
2017-Mar-22 10:29N 50°49' W 001°06'0 0.0
2017-Mar-22 09:31N 50°49' W 001°06'0 0.0
2017-Mar-22 08:31N 50°49' W 001°06'1 1.3
2017-Mar-22 07:33N 50°48' W 001°07'10 9.6
2017-Mar-22 06:33N 50°38' W 001°06'1814.2
2017-Mar-22 05:17N 50°23' W 001°22'811.1
2017-Mar-22 04:33N 50°16' W 001°29'1211.8
2017-Mar-22 03:33N 50°06' W 001°39'1212.0
2017-Mar-22 02:33N 49°56' W 001°49'1212.2
2017-Mar-22 01:33N 49°46' W 002°00'17 0.8
2017-Mar-21 03:05N 49°31' W 002°12'2214.3
2017-Mar-21 01:34N 49°51' W 001°57'1413.7
2017-Mar-21 00:33N 50°02' W 001°44'2914.3
2017-Mar-20 22:32N 50°26' W 001°19'1514.9
2017-Mar-20 21:33N 50°38' W 001°06'1010.4
2017-Mar-20 20:34N 50°48' W 001°07'1 0.9
2017-Mar-20 19:33N 50°49' W 001°06'0 0.0
2017-Mar-20 18:33N 50°49' W 001°06'0 0.0
2017-Mar-20 17:33N 50°49' W 001°06'0 0.0
2017-Mar-20 16:33N 50°49' W 001°06'0 0.0
2017-Mar-20 15:33N 50°49' W 001°06'0 0.0
2017-Mar-20 14:33N 50°49' W 001°06'0 0.0
2017-Mar-20 13:33N 50°49' W 001°06'0 0.0
2017-Mar-20 12:33N 50°49' W 001°06'0 0.0
2017-Mar-20 11:33N 50°49' W 001°06'0 0.0
2017-Mar-20 10:33N 50°49' W 001°06'0 0.0
2017-Mar-20 09:33N 50°49' W 001°06'0 0.0
2017-Mar-20 08:34N 50°49' W 001°06'0 0.1
2017-Mar-20 07:34N 50°49' W 001°06'10 9.9
2017-Mar-20 06:33N 50°39' W 001°05'1717.2
2017-Mar-20 05:33N 50°24' W 001°21'1111.3
2017-Mar-20 04:33N 50°15' W 001°30'1211.7
2017-Mar-20 03:34N 50°06' W 001°42'1211.9
2017-Mar-20 02:33N 49°56' W 001°53'6312.1
2017-Mar-19 21:19N 48°56' W 002°21'21 3.0
2017-Mar-19 14:05N 48°38' W 002°02'0 0.0
2017-Mar-19 11:26N 48°38' W 002°02'0 0.0
2017-Mar-19 07:29N 48°38' W 002°02'4 4.7
2017-Mar-19 06:33N 48°42' W 002°06'2216.8
2017-Mar-19 05:14N 49°01' W 002°22'912.7
2017-Mar-19 04:33N 49°10' W 002°22'1212.1
2017-Mar-19 03:33N 49°22' W 002°18'1714.8
2017-Mar-19 02:24N 49°37' W 002°07'1315.2
2017-Mar-19 01:33N 49°49' W 001°59'1313.4
2017-Mar-19 00:33N 49°59' W 001°45'1313.4
2017-Mar-18 23:34N 50°10' W 001°34'1313.5
2017-Mar-18 22:33N 50°22' W 001°23'1413.9
2017-Mar-18 21:33N 50°33' W 001°11'1212.2
2017-Mar-18 20:34N 50°45' W 001°05'4 3.7
2017-Mar-18 19:33N 50°49' W 001°06'0 0.0
2017-Mar-18 18:32N 50°49' W 001°06'2 1.8
2017-Mar-18 17:34N 50°47' W 001°06'1211.8
2017-Mar-18 16:33N 50°35' W 001°09'1615.9
2017-Mar-18 15:33N 50°22' W 001°22'1717.5
2017-Mar-18 14:33N 50°07' W 001°37'1818.4
2017-Mar-18 13:34N 49°51' W 001°52'2019.8
2017-Mar-18 12:33N 49°33' W 002°03'50 8.3
2017-Mar-18 06:31N 48°43' W 002°07'4614.9
2017-Mar-18 03:24N 49°29' W 002°13'1719.0
2017-Mar-18 02:30N 49°45' W 002°02'1617.5
2017-Mar-18 01:33N 49°59' W 001°50'2217.3
2017-Mar-18 00:17N 50°21' W 001°45'1114.6
2017-Mar-17 23:33N 50°31' W 001°40'1711.1
2017-Mar-17 22:04N 50°32' W 001°14'611.0
2017-Mar-17 21:34N 50°36' W 001°07'1111.2
2017-Mar-17 20:33N 50°48' W 001°07'1 1.3
2017-Mar-17 19:33N 50°49' W 001°06'0 0.0
2017-Mar-17 18:33N 50°49' W 001°06'0 0.0
2017-Mar-17 17:33N 50°49' W 001°06'0 0.0
2017-Mar-17 16:33N 50°49' W 001°06'0 0.0
2017-Mar-17 15:33N 50°49' W 001°06'0 0.0
2017-Mar-17 14:31N 50°49' W 001°06'0 0.0
2017-Mar-17 13:31N 50°49' W 001°06'0 0.0
2017-Mar-17 12:31N 50°49' W 001°06'0 0.0
2017-Mar-17 11:31N 50°49' W 001°06'0 0.0
2017-Mar-17 10:31N 50°49' W 001°06'0 0.0
2017-Mar-17 09:31N 50°49' W 001°06'0 0.0
2017-Mar-17 08:31N 50°49' W 001°06'1 0.5
2017-Mar-17 07:33N 50°49' W 001°07'10 9.6
2017-Mar-17 06:34N 50°39' W 001°05'1513.4
2017-Mar-17 05:25N 50°26' W 001°19'910.3
2017-Mar-17 04:33N 50°19' W 001°27'1212.3
2017-Mar-17 03:33N 50°09' W 001°38'1414.4
2017-Mar-17 02:33N 49°57' W 001°49'1211.8
2017-Mar-17 01:33N 49°47' W 001°59'1510.9
2017-Mar-17 00:11N 49°34' W 002°10'3412.8
2017-Mar-16 21:30N 49°00' W 002°22'1212.1
2017-Mar-16 20:30N 48°49' W 002°18'9 0.9
2017-Mar-16 09:33N 48°44' W 002°05'6 5.6
2017-Mar-16 08:30N 48°38' W 002°02'0 0.0
2017-Mar-16 07:14N 48°38' W 002°02'4 6.3
2017-Mar-16 06:33N 48°42' W 002°06'1918.5
2017-Mar-16 05:33N 48°57' W 002°22'1313.5
2017-Mar-16 04:33N 49°11' W 002°22'1413.5
2017-Mar-16 03:33N 49°24' W 002°16'1814.9
2017-Mar-16 02:20N 49°40' W 002°06'1418.0
2017-Mar-16 01:34N 49°52' W 001°53'1717.1
2017-Mar-16 00:34N 50°05' W 001°37'1716.6
2017-Mar-15 23:33N 50°18' W 001°21'1616.0
2017-Mar-15 22:33N 50°31' W 001°05'1313.1
2017-Mar-15 21:33N 50°44' W 001°04'5 4.8
2017-Mar-15 20:33N 50°49' W 001°06'0 0.0
2017-Mar-15 19:33N 50°49' W 001°06'0 0.0
2017-Mar-15 18:32N 50°49' W 001°06'0 0.0
2017-Mar-15 17:34N 50°49' W 001°06'0 0.0
2017-Mar-15 16:33N 50°49' W 001°06'0 0.0
2017-Mar-15 15:31N 50°49' W 001°06'0 0.0
2017-Mar-15 14:31N 50°49' W 001°06'0 0.0
2017-Mar-15 13:33N 50°49' W 001°06'0 0.0
2017-Mar-15 12:33N 50°49' W 001°06'0 0.0
2017-Mar-15 11:32N 50°49' W 001°06'0 0.0
2017-Mar-15 10:32N 50°49' W 001°06'0 0.0
2017-Mar-15 09:32N 50°49' W 001°06'0 0.0
2017-Mar-15 08:31N 50°49' W 001°06'0 0.2
2017-Mar-15 07:34N 50°49' W 001°06'9 9.2
2017-Mar-15 06:33N 50°40' W 001°04'1717.2
2017-Mar-15 05:33N 50°25' W 001°18'1110.5
2017-Mar-15 04:33N 50°17' W 001°29'1413.6
2017-Mar-15 03:33N 50°06' W 001°42'1312.9
2017-Mar-15 02:34N 49°55' W 001°52'1412.7
2017-Mar-15 01:29N 49°44' W 002°04'11 9.7
2017-Mar-15 00:18N 49°33' W 002°11'2614.5
2017-Mar-14 22:32N 49°09' W 002°25'1414.1
2017-Mar-14 21:33N 48°55' W 002°22'1212.4
2017-Mar-14 20:33N 48°46' W 002°10'5 0.3
2017-Mar-14 06:20N 48°46' W 002°03'1011.3
2017-Mar-14 05:28N 48°52' W 002°15'2912.8
2017-Mar-14 03:11N 49°21' W 002°21'1214.4
2017-Mar-14 02:21N 49°31' W 002°11'1716.1
2017-Mar-14 01:17N 49°47' W 002°00'1013.9
2017-Mar-14 00:34N 49°55' W 001°53'1616.3
2017-Mar-13 23:34N 50°09' W 001°38'1515.1
2017-Mar-13 22:33N 50°21' W 001°25'1413.9
2017-Mar-13 21:33N 50°32' W 001°12'1212.5
2017-Mar-13 20:33N 50°44' W 001°04'5 4.8
2017-Mar-13 19:32N 50°49' W 001°06'0 0.0
2017-Mar-13 18:32N 50°49' W 001°06'0 0.0
2017-Mar-13 17:32N 50°49' W 001°06'0 0.0
2017-Mar-13 16:32N 50°49' W 001°06'0 0.0
2017-Mar-13 15:32N 50°49' W 001°06'0 0.0
2017-Mar-13 14:32N 50°49' W 001°06'0 0.0
2017-Mar-13 13:32N 50°49' W 001°06'0 0.0
2017-Mar-13 12:32N 50°49' W 001°06'0 0.0
2017-Mar-13 11:32N 50°49' W 001°06'0 0.0
2017-Mar-13 10:32N 50°49' W 001°06'0 0.0
2017-Mar-13 09:32N 50°49' W 001°06'0 0.0
2017-Mar-13 08:32N 50°49' W 001°06'0 0.0
2017-Mar-13 07:33N 50°49' W 001°06'10 9.9
2017-Mar-13 06:34N 50°40' W 000°59'2216.6
2017-Mar-13 05:14N 50°22' W 001°20'811.9
2017-Mar-13 04:33N 50°16' W 001°28'1312.6
2017-Mar-13 03:33N 50°06' W 001°40'1212.4
2017-Mar-13 02:33N 49°56' W 001°52'  

Dump ship's entire track history